sensor_id;sensor_type;location;lat;lon;timestamp;P1;durP1;ratioP1;P2;durP2;ratioP2
16450;SDS011;12243;42.708;23.310;2023-06-10T00:02:19;4.60;;;4.30;;
16450;SDS011;12243;42.708;23.310;2023-06-10T00:04:46;5.82;;;4.38;;
16450;SDS011;12243;42.708;23.310;2023-06-10T00:07:13;4.45;;;4.15;;
16450;SDS011;12243;42.708;23.310;2023-06-10T00:09:40;4.15;;;3.85;;
16450;SDS011;12243;42.708;23.310;2023-06-10T00:12:08;4.53;;;4.18;;
16450;SDS011;12243;42.708;23.310;2023-06-10T00:14:38;4.60;;;4.28;;
16450;SDS011;12243;42.708;23.310;2023-06-10T00:17:06;4.60;;;4.30;;
16450;SDS011;12243;42.708;23.310;2023-06-10T00:19:35;5.38;;;5.00;;
16450;SDS011;12243;42.708;23.310;2023-06-10T00:22:02;5.88;;;5.43;;
16450;SDS011;12243;42.708;23.310;2023-06-10T00:24:30;4.60;;;4.20;;
16450;SDS011;12243;42.708;23.310;2023-06-10T00:26:57;4.95;;;4.65;;
16450;SDS011;12243;42.708;23.310;2023-06-10T00:29:23;5.95;;;4.60;;
16450;SDS011;12243;42.708;23.310;2023-06-10T00:31:53;5.45;;;5.00;;
16450;SDS011;12243;42.708;23.310;2023-06-10T00:34:22;5.40;;;5.00;;
16450;SDS011;12243;42.708;23.310;2023-06-10T00:36:50;5.30;;;4.97;;
16450;SDS011;12243;42.708;23.310;2023-06-10T00:39:17;5.15;;;4.75;;
16450;SDS011;12243;42.708;23.310;2023-06-10T00:41:44;5.47;;;5.05;;
16450;SDS011;12243;42.708;23.310;2023-06-10T00:44:11;5.40;;;4.90;;
16450;SDS011;12243;42.708;23.310;2023-06-10T00:46:38;5.05;;;4.75;;
16450;SDS011;12243;42.708;23.310;2023-06-10T00:49:07;4.80;;;4.50;;
16450;SDS011;12243;42.708;23.310;2023-06-10T00:51:36;7.03;;;5.25;;
16450;SDS011;12243;42.708;23.310;2023-06-10T00:54:04;5.20;;;4.85;;
16450;SDS011;12243;42.708;23.310;2023-06-10T00:56:33;4.60;;;4.28;;
16450;SDS011;12243;42.708;23.310;2023-06-10T00:59:01;7.07;;;4.68;;
16450;SDS011;12243;42.708;23.310;2023-06-10T01:01:28;8.82;;;5.50;;
16450;SDS011;12243;42.708;23.310;2023-06-10T01:03:56;7.05;;;6.50;;
16450;SDS011;12243;42.708;23.310;2023-06-10T01:06:28;7.38;;;6.50;;
16450;SDS011;12243;42.708;23.310;2023-06-10T01:09:02;11.40;;;10.30;;
16450;SDS011;12243;42.708;23.310;2023-06-10T01:11:41;10.95;;;9.95;;
16450;SDS011;12243;42.708;23.310;2023-06-10T01:14:12;10.82;;;9.82;;
16450;SDS011;12243;42.708;23.310;2023-06-10T01:16:40;8.70;;;7.88;;
16450;SDS011;12243;42.708;23.310;2023-06-10T01:19:09;7.85;;;7.15;;
16450;SDS011;12243;42.708;23.310;2023-06-10T01:21:39;5.78;;;5.38;;
16450;SDS011;12243;42.708;23.310;2023-06-10T01:24:06;8.40;;;5.88;;
16450;SDS011;12243;42.708;23.310;2023-06-10T01:26:38;8.70;;;5.60;;
16450;SDS011;12243;42.708;23.310;2023-06-10T01:29:07;6.57;;;5.97;;
16450;SDS011;12243;42.708;23.310;2023-06-10T01:31:41;6.50;;;6.00;;
16450;SDS011;12243;42.708;23.310;2023-06-10T01:34:16;6.40;;;5.80;;
16450;SDS011;12243;42.708;23.310;2023-06-10T01:36:46;5.88;;;5.38;;
16450;SDS011;12243;42.708;23.310;2023-06-10T01:39:15;5.35;;;5.00;;
16450;SDS011;12243;42.708;23.310;2023-06-10T01:41:43;6.30;;;5.80;;
16450;SDS011;12243;42.708;23.310;2023-06-10T01:44:11;5.97;;;5.38;;
16450;SDS011;12243;42.708;23.310;2023-06-10T01:46:39;6.22;;;5.70;;
16450;SDS011;12243;42.708;23.310;2023-06-10T01:49:06;5.95;;;5.50;;
16450;SDS011;12243;42.708;23.310;2023-06-10T01:51:33;5.22;;;4.93;;
16450;SDS011;12243;42.708;23.310;2023-06-10T01:54:01;5.18;;;4.72;;
16450;SDS011;12243;42.708;23.310;2023-06-10T01:56:28;5.20;;;4.72;;
16450;SDS011;12243;42.708;23.310;2023-06-10T01:58:56;5.03;;;4.47;;
16450;SDS011;12243;42.708;23.310;2023-06-10T02:01:24;5.97;;;5.38;;
16450;SDS011;12243;42.708;23.310;2023-06-10T02:03:51;6.70;;;5.70;;
16450;SDS011;12243;42.708;23.310;2023-06-10T02:06:18;7.32;;;6.30;;
16450;SDS011;12243;42.708;23.310;2023-06-10T02:08:45;5.97;;;5.47;;
16450;SDS011;12243;42.708;23.310;2023-06-10T02:11:13;5.60;;;5.20;;
16450;SDS011;12243;42.708;23.310;2023-06-10T02:13:40;5.70;;;5.25;;
16450;SDS011;12243;42.708;23.310;2023-06-10T02:16:07;5.90;;;4.72;;
16450;SDS011;12243;42.708;23.310;2023-06-10T02:18:37;5.88;;;5.38;;
16450;SDS011;12243;42.708;23.310;2023-06-10T02:21:07;5.72;;;5.22;;
16450;SDS011;12243;42.708;23.310;2023-06-10T02:23:35;4.88;;;4.40;;
16450;SDS011;12243;42.708;23.310;2023-06-10T02:26:03;5.10;;;4.63;;
16450;SDS011;12243;42.708;23.310;2023-06-10T02:28:33;4.28;;;3.97;;
16450;SDS011;12243;42.708;23.310;2023-06-10T02:31:00;5.32;;;4.82;;
16450;SDS011;12243;42.708;23.310;2023-06-10T02:33:28;4.78;;;4.43;;
16450;SDS011;12243;42.708;23.310;2023-06-10T02:35:55;5.18;;;4.85;;
16450;SDS011;12243;42.708;23.310;2023-06-10T02:38:23;5.43;;;4.93;;
16450;SDS011;12243;42.708;23.310;2023-06-10T02:40:50;5.15;;;4.75;;
16450;SDS011;12243;42.708;23.310;2023-06-10T02:43:17;5.13;;;4.72;;
16450;SDS011;12243;42.708;23.310;2023-06-10T02:45:47;4.82;;;4.40;;
16450;SDS011;12243;42.708;23.310;2023-06-10T02:48:16;4.85;;;4.40;;
16450;SDS011;12243;42.708;23.310;2023-06-10T02:50:43;5.07;;;4.68;;
16450;SDS011;12243;42.708;23.310;2023-06-10T02:53:26;5.43;;;4.45;;
16450;SDS011;12243;42.708;23.310;2023-06-10T02:56:00;5.20;;;4.70;;
16450;SDS011;12243;42.708;23.310;2023-06-10T02:58:27;5.85;;;4.40;;
16450;SDS011;12243;42.708;23.310;2023-06-10T03:00:56;5.93;;;4.90;;
16450;SDS011;12243;42.708;23.310;2023-06-10T03:03:24;5.90;;;5.03;;
16450;SDS011;12243;42.708;23.310;2023-06-10T03:06:06;5.97;;;5.30;;
16450;SDS011;12243;42.708;23.310;2023-06-10T03:08:34;6.53;;;6.03;;
16450;SDS011;12243;42.708;23.310;2023-06-10T03:11:05;9.13;;;7.03;;
16450;SDS011;12243;42.708;23.310;2023-06-10T03:13:35;7.00;;;6.50;;
16450;SDS011;12243;42.708;23.310;2023-06-10T03:16:04;7.53;;;6.82;;
16450;SDS011;12243;42.708;23.310;2023-06-10T03:18:34;7.32;;;6.20;;
16450;SDS011;12243;42.708;23.310;2023-06-10T03:21:01;7.82;;;7.13;;
16450;SDS011;12243;42.708;23.310;2023-06-10T03:23:29;7.72;;;6.90;;
16450;SDS011;12243;42.708;23.310;2023-06-10T03:25:56;9.02;;;7.30;;
16450;SDS011;12243;42.708;23.310;2023-06-10T03:28:23;7.35;;;6.63;;
16450;SDS011;12243;42.708;23.310;2023-06-10T03:30:50;7.75;;;6.97;;
16450;SDS011;12243;42.708;23.310;2023-06-10T03:33:21;7.75;;;6.82;;
16450;SDS011;12243;42.708;23.310;2023-06-10T03:35:51;7.38;;;6.13;;
16450;SDS011;12243;42.708;23.310;2023-06-10T03:38:18;7.72;;;5.93;;
16450;SDS011;12243;42.708;23.310;2023-06-10T03:40:47;6.35;;;5.82;;
16450;SDS011;12243;42.708;23.310;2023-06-10T03:43:13;6.45;;;5.95;;
16450;SDS011;12243;42.708;23.310;2023-06-10T03:45:41;6.72;;;6.13;;
16450;SDS011;12243;42.708;23.310;2023-06-10T03:48:09;5.95;;;5.55;;
16450;SDS011;12243;42.708;23.310;2023-06-10T03:50:48;5.32;;;4.90;;
16450;SDS011;12243;42.708;23.310;2023-06-10T03:53:16;5.38;;;4.88;;
16450;SDS011;12243;42.708;23.310;2023-06-10T03:55:44;5.00;;;4.60;;
16450;SDS011;12243;42.708;23.310;2023-06-10T03:58:13;4.43;;;4.13;;
16450;SDS011;12243;42.708;23.310;2023-06-10T04:00:41;5.05;;;4.75;;
16450;SDS011;12243;42.708;23.310;2023-06-10T04:03:08;4.47;;;4.18;;
16450;SDS011;12243;42.708;23.310;2023-06-10T04:05:41;5.70;;;4.28;;
16450;SDS011;12243;42.708;23.310;2023-06-10T04:08:09;4.80;;;4.32;;
16450;SDS011;12243;42.708;23.310;2023-06-10T04:10:37;4.65;;;4.25;;
16450;SDS011;12243;42.708;23.310;2023-06-10T04:13:04;4.55;;;4.25;;
16450;SDS011;12243;42.708;23.310;2023-06-10T04:15:37;4.40;;;4.07;;
16450;SDS011;12243;42.708;23.310;2023-06-10T04:18:09;4.18;;;3.85;;
16450;SDS011;12243;42.708;23.310;2023-06-10T04:20:36;5.60;;;4.47;;
16450;SDS011;12243;42.708;23.310;2023-06-10T04:23:04;8.88;;;4.63;;
16450;SDS011;12243;42.708;23.310;2023-06-10T04:25:32;4.90;;;4.40;;
16450;SDS011;12243;42.708;23.310;2023-06-10T04:28:00;5.03;;;4.63;;
16450;SDS011;12243;42.708;23.310;2023-06-10T04:30:27;5.00;;;4.10;;
16450;SDS011;12243;42.708;23.310;2023-06-10T04:32:55;4.80;;;4.38;;
16450;SDS011;12243;42.708;23.310;2023-06-10T04:35:22;5.15;;;4.85;;
16450;SDS011;12243;42.708;23.310;2023-06-10T04:37:52;4.78;;;4.43;;
16450;SDS011;12243;42.708;23.310;2023-06-10T04:40:19;5.53;;;5.13;;
16450;SDS011;12243;42.708;23.310;2023-06-10T04:42:48;5.30;;;4.90;;
16450;SDS011;12243;42.708;23.310;2023-06-10T04:45:15;4.97;;;4.68;;
16450;SDS011;12243;42.708;23.310;2023-06-10T04:47:44;5.80;;;5.32;;
16450;SDS011;12243;42.708;23.310;2023-06-10T04:50:11;5.93;;;5.30;;
16450;SDS011;12243;42.708;23.310;2023-06-10T04:52:38;4.75;;;4.45;;
16450;SDS011;12243;42.708;23.310;2023-06-10T04:55:07;7.47;;;5.18;;
16450;SDS011;12243;42.708;23.310;2023-06-10T04:57:35;5.82;;;5.32;;
16450;SDS011;12243;42.708;23.310;2023-06-10T05:00:03;5.75;;;5.00;;
16450;SDS011;12243;42.708;23.310;2023-06-10T05:02:31;6.50;;;5.18;;
16450;SDS011;12243;42.708;23.310;2023-06-10T05:04:58;5.45;;;5.05;;
16450;SDS011;12243;42.708;23.310;2023-06-10T05:07:25;5.57;;;5.07;;
16450;SDS011;12243;42.708;23.310;2023-06-10T05:09:52;5.57;;;5.00;;
16450;SDS011;12243;42.708;23.310;2023-06-10T05:12:19;5.70;;;5.15;;
16450;SDS011;12243;42.708;23.310;2023-06-10T05:14:45;5.30;;;4.90;;
16450;SDS011;12243;42.708;23.310;2023-06-10T05:17:14;5.15;;;4.65;;
16450;SDS011;12243;42.708;23.310;2023-06-10T05:19:40;5.13;;;4.70;;
16450;SDS011;12243;42.708;23.310;2023-06-10T05:22:08;5.30;;;4.90;;
16450;SDS011;12243;42.708;23.310;2023-06-10T05:24:35;6.30;;;5.70;;
16450;SDS011;12243;42.708;23.310;2023-06-10T05:27:02;4.78;;;4.35;;
16450;SDS011;12243;42.708;23.310;2023-06-10T05:29:29;4.97;;;4.57;;
16450;SDS011;12243;42.708;23.310;2023-06-10T05:31:56;7.03;;;5.05;;
16450;SDS011;12243;42.708;23.310;2023-06-10T05:34:29;6.43;;;5.88;;
16450;SDS011;12243;42.708;23.310;2023-06-10T05:36:56;5.78;;;5.32;;
16450;SDS011;12243;42.708;23.310;2023-06-10T05:39:23;5.68;;;5.25;;
16450;SDS011;12243;42.708;23.310;2023-06-10T05:41:50;5.07;;;4.65;;
16450;SDS011;12243;42.708;23.310;2023-06-10T05:44:16;5.50;;;5.10;;
16450;SDS011;12243;42.708;23.310;2023-06-10T05:46:43;5.68;;;5.15;;
16450;SDS011;12243;42.708;23.310;2023-06-10T05:49:10;5.53;;;5.13;;
16450;SDS011;12243;42.708;23.310;2023-06-10T05:51:39;5.70;;;5.22;;
16450;SDS011;12243;42.708;23.310;2023-06-10T05:54:05;5.80;;;5.40;;
16450;SDS011;12243;42.708;23.310;2023-06-10T05:56:32;6.65;;;6.03;;
16450;SDS011;12243;42.708;23.310;2023-06-10T05:58:59;6.63;;;6.13;;
16450;SDS011;12243;42.708;23.310;2023-06-10T06:01:26;5.50;;;5.10;;
16450;SDS011;12243;42.708;23.310;2023-06-10T06:03:53;5.50;;;5.10;;
16450;SDS011;12243;42.708;23.310;2023-06-10T06:06:23;5.80;;;5.30;;
16450;SDS011;12243;42.708;23.310;2023-06-10T06:08:51;7.88;;;5.10;;
16450;SDS011;12243;42.708;23.310;2023-06-10T06:11:18;5.57;;;5.18;;
16450;SDS011;12243;42.708;23.310;2023-06-10T06:13:46;4.60;;;4.30;;
16450;SDS011;12243;42.708;23.310;2023-06-10T06:16:13;8.45;;;6.05;;
16450;SDS011;12243;42.708;23.310;2023-06-10T06:18:40;5.55;;;5.05;;
16450;SDS011;12243;42.708;23.310;2023-06-10T06:21:08;8.55;;;6.07;;
16450;SDS011;12243;42.708;23.310;2023-06-10T06:23:34;6.03;;;5.53;;
16450;SDS011;12243;42.708;23.310;2023-06-10T06:26:03;6.03;;;5.53;;
16450;SDS011;12243;42.708;23.310;2023-06-10T06:28:30;5.95;;;5.55;;
16450;SDS011;12243;42.708;23.310;2023-06-10T06:30:56;5.72;;;5.32;;
16450;SDS011;12243;42.708;23.310;2023-06-10T06:33:23;6.60;;;5.10;;
16450;SDS011;12243;42.708;23.310;2023-06-10T06:35:51;6.10;;;4.75;;
16450;SDS011;12243;42.708;23.310;2023-06-10T06:38:18;4.93;;;4.60;;
16450;SDS011;12243;42.708;23.310;2023-06-10T06:40:46;5.53;;;5.18;;
16450;SDS011;12243;42.708;23.310;2023-06-10T06:43:14;4.75;;;4.40;;
16450;SDS011;12243;42.708;23.310;2023-06-10T06:46:02;5.47;;;5.07;;
16450;SDS011;12243;42.708;23.310;2023-06-10T06:48:28;5.18;;;4.78;;
16450;SDS011;12243;42.708;23.310;2023-06-10T06:50:56;6.22;;;5.25;;
16450;SDS011;12243;42.708;23.310;2023-06-10T06:53:23;8.18;;;5.35;;
16450;SDS011;12243;42.708;23.310;2023-06-10T06:55:50;5.07;;;4.68;;
16450;SDS011;12243;42.708;23.310;2023-06-10T06:58:18;5.03;;;4.55;;
16450;SDS011;12243;42.708;23.310;2023-06-10T07:00:45;5.05;;;4.55;;
16450;SDS011;12243;42.708;23.310;2023-06-10T07:03:12;4.95;;;4.65;;
16450;SDS011;12243;42.708;23.310;2023-06-10T07:05:39;4.60;;;4.20;;
16450;SDS011;12243;42.708;23.310;2023-06-10T07:08:06;4.22;;;3.85;;
16450;SDS011;12243;42.708;23.310;2023-06-10T07:10:33;5.63;;;4.38;;
16450;SDS011;12243;42.708;23.310;2023-06-10T07:13:00;5.00;;;4.60;;
16450;SDS011;12243;42.708;23.310;2023-06-10T07:15:28;4.63;;;4.22;;
16450;SDS011;12243;42.708;23.310;2023-06-10T07:17:55;4.57;;;4.18;;
16450;SDS011;12243;42.708;23.310;2023-06-10T07:20:22;4.60;;;4.22;;
16450;SDS011;12243;42.708;23.310;2023-06-10T07:22:49;4.68;;;4.20;;
16450;SDS011;12243;42.708;23.310;2023-06-10T07:25:18;4.55;;;4.25;;
16450;SDS011;12243;42.708;23.310;2023-06-10T07:27:45;4.28;;;4.00;;
16450;SDS011;12243;42.708;23.310;2023-06-10T07:30:12;5.38;;;4.13;;
16450;SDS011;12243;42.708;23.310;2023-06-10T07:32:41;3.90;;;3.60;;
16450;SDS011;12243;42.708;23.310;2023-06-10T07:35:10;4.30;;;3.05;;
16450;SDS011;12243;42.708;23.310;2023-06-10T07:37:38;6.90;;;3.30;;
16450;SDS011;12243;42.708;23.310;2023-06-10T07:40:05;3.58;;;3.38;;
16450;SDS011;12243;42.708;23.310;2023-06-10T07:42:34;4.25;;;3.78;;
16450;SDS011;12243;42.708;23.310;2023-06-10T07:45:01;4.10;;;3.83;;
16450;SDS011;12243;42.708;23.310;2023-06-10T07:47:29;3.97;;;3.72;;
16450;SDS011;12243;42.708;23.310;2023-06-10T07:49:57;4.03;;;3.83;;
16450;SDS011;12243;42.708;23.310;2023-06-10T07:52:24;4.68;;;4.28;;
16450;SDS011;12243;42.708;23.310;2023-06-10T07:54:53;4.28;;;3.97;;
16450;SDS011;12243;42.708;23.310;2023-06-10T07:57:20;4.40;;;4.00;;
16450;SDS011;12243;42.708;23.310;2023-06-10T07:59:47;3.90;;;3.70;;
16450;SDS011;12243;42.708;23.310;2023-06-10T08:02:14;4.80;;;4.35;;
16450;SDS011;12243;42.708;23.310;2023-06-10T08:04:41;4.15;;;3.72;;
16450;SDS011;12243;42.708;23.310;2023-06-10T08:07:10;4.60;;;4.30;;
16450;SDS011;12243;42.708;23.310;2023-06-10T08:09:37;4.07;;;3.67;;
16450;SDS011;12243;42.708;23.310;2023-06-10T08:12:04;3.53;;;3.28;;
16450;SDS011;12243;42.708;23.310;2023-06-10T08:14:35;4.00;;;3.70;;
16450;SDS011;12243;42.708;23.310;2023-06-10T08:17:02;3.85;;;3.55;;
16450;SDS011;12243;42.708;23.310;2023-06-10T08:19:31;3.17;;;2.97;;
16450;SDS011;12243;42.708;23.310;2023-06-10T08:21:58;3.50;;;3.30;;
16450;SDS011;12243;42.708;23.310;2023-06-10T08:24:26;3.00;;;2.90;;
16450;SDS011;12243;42.708;23.310;2023-06-10T08:26:53;3.10;;;3.00;;
16450;SDS011;12243;42.708;23.310;2023-06-10T08:29:23;3.10;;;2.90;;
16450;SDS011;12243;42.708;23.310;2023-06-10T08:31:52;2.90;;;2.75;;
16450;SDS011;12243;42.708;23.310;2023-06-10T08:34:22;3.40;;;3.03;;
16450;SDS011;12243;42.708;23.310;2023-06-10T08:36:49;3.28;;;3.08;;
16450;SDS011;12243;42.708;23.310;2023-06-10T08:39:20;3.05;;;2.75;;
16450;SDS011;12243;42.708;23.310;2023-06-10T08:41:51;3.05;;;2.85;;
16450;SDS011;12243;42.708;23.310;2023-06-10T08:44:27;3.20;;;3.00;;
16450;SDS011;12243;42.708;23.310;2023-06-10T08:46:55;3.30;;;3.10;;
16450;SDS011;12243;42.708;23.310;2023-06-10T08:49:27;3.22;;;3.03;;
16450;SDS011;12243;42.708;23.310;2023-06-10T08:52:01;3.17;;;3.05;;
16450;SDS011;12243;42.708;23.310;2023-06-10T08:54:30;3.55;;;3.30;;
16450;SDS011;12243;42.708;23.310;2023-06-10T08:57:01;3.67;;;3.38;;
16450;SDS011;12243;42.708;23.310;2023-06-10T08:59:32;3.22;;;3.03;;
16450;SDS011;12243;42.708;23.310;2023-06-10T09:01:59;3.80;;;3.50;;
16450;SDS011;12243;42.708;23.310;2023-06-10T09:04:27;3.72;;;3.42;;
16450;SDS011;12243;42.708;23.310;2023-06-10T09:06:54;3.85;;;3.60;;
16450;SDS011;12243;42.708;23.310;2023-06-10T09:09:23;3.33;;;3.13;;
16450;SDS011;12243;42.708;23.310;2023-06-10T09:11:51;3.28;;;3.08;;
16450;SDS011;12243;42.708;23.310;2023-06-10T09:14:20;3.72;;;3.42;;
16450;SDS011;12243;42.708;23.310;2023-06-10T09:16:47;4.25;;;3.22;;
16450;SDS011;12243;42.708;23.310;2023-06-10T09:19:15;3.53;;;3.33;;
16450;SDS011;12243;42.708;23.310;2023-06-10T09:21:43;3.65;;;3.35;;
16450;SDS011;12243;42.708;23.310;2023-06-10T09:24:09;3.40;;;3.20;;
16450;SDS011;12243;42.708;23.310;2023-06-10T09:26:37;3.40;;;3.22;;
16450;SDS011;12243;42.708;23.310;2023-06-10T09:29:05;3.67;;;3.47;;
16450;SDS011;12243;42.708;23.310;2023-06-10T09:31:35;3.55;;;3.30;;
16450;SDS011;12243;42.708;23.310;2023-06-10T09:34:06;3.05;;;2.95;;
16450;SDS011;12243;42.708;23.310;2023-06-10T09:36:35;3.33;;;3.00;;
16450;SDS011;12243;42.708;23.310;2023-06-10T09:39:02;3.17;;;3.00;;
16450;SDS011;12243;42.708;23.310;2023-06-10T09:41:33;2.83;;;2.72;;
16450;SDS011;12243;42.708;23.310;2023-06-10T09:44:01;3.30;;;3.10;;
16450;SDS011;12243;42.708;23.310;2023-06-10T09:46:30;3.40;;;3.20;;
16450;SDS011;12243;42.708;23.310;2023-06-10T09:48:59;3.22;;;3.08;;
16450;SDS011;12243;42.708;23.310;2023-06-10T09:51:26;3.30;;;3.10;;
16450;SDS011;12243;42.708;23.310;2023-06-10T09:53:53;3.22;;;3.03;;
16450;SDS011;12243;42.708;23.310;2023-06-10T09:56:20;3.22;;;3.00;;
16450;SDS011;12243;42.708;23.310;2023-06-10T09:58:49;3.28;;;3.10;;
16450;SDS011;12243;42.708;23.310;2023-06-10T10:01:19;3.25;;;3.05;;
16450;SDS011;12243;42.708;23.310;2023-06-10T10:03:47;2.72;;;2.63;;
16450;SDS011;12243;42.708;23.310;2023-06-10T10:06:18;2.75;;;2.30;;
16450;SDS011;12243;42.708;23.310;2023-06-10T10:08:46;2.00;;;1.90;;
16450;SDS011;12243;42.708;23.310;2023-06-10T10:11:16;2.15;;;2.13;;
16450;SDS011;12243;42.708;23.310;2023-06-10T10:13:44;2.45;;;2.35;;
16450;SDS011;12243;42.708;23.310;2023-06-10T10:16:14;2.58;;;2.47;;
16450;SDS011;12243;42.708;23.310;2023-06-10T10:18:45;2.65;;;2.10;;
16450;SDS011;12243;42.708;23.310;2023-06-10T10:21:21;2.33;;;2.30;;
16450;SDS011;12243;42.708;23.310;2023-06-10T10:23:52;2.60;;;2.50;;
16450;SDS011;12243;42.708;23.310;2023-06-10T10:26:24;2.53;;;2.42;;
16450;SDS011;12243;42.708;23.310;2023-06-10T10:28:55;3.65;;;2.90;;
16450;SDS011;12243;42.708;23.310;2023-06-10T10:31:29;3.15;;;2.97;;
16450;SDS011;12243;42.708;23.310;2023-06-10T10:33:59;2.65;;;2.55;;
16450;SDS011;12243;42.708;23.310;2023-06-10T10:36:28;3.03;;;2.90;;
16450;SDS011;12243;42.708;23.310;2023-06-10T10:38:58;2.85;;;2.28;;
16450;SDS011;12243;42.708;23.310;2023-06-10T10:41:28;2.67;;;2.58;;
16450;SDS011;12243;42.708;23.310;2023-06-10T10:43:57;2.75;;;2.65;;
16450;SDS011;12243;42.708;23.310;2023-06-10T10:46:25;2.88;;;2.67;;
16450;SDS011;12243;42.708;23.310;2023-06-10T10:48:52;3.03;;;2.88;;
16450;SDS011;12243;42.708;23.310;2023-06-10T10:51:21;2.50;;;2.40;;
16450;SDS011;12243;42.708;23.310;2023-06-10T10:56:39;2.70;;;2.60;;
16450;SDS011;12243;42.708;23.310;2023-06-10T10:59:06;2.90;;;2.80;;
16450;SDS011;12243;42.708;23.310;2023-06-10T11:01:40;2.80;;;2.70;;
16450;SDS011;12243;42.708;23.310;2023-06-10T11:04:11;3.13;;;2.92;;
16450;SDS011;12243;42.708;23.310;2023-06-10T11:06:38;2.67;;;2.58;;
16450;SDS011;12243;42.708;23.310;2023-06-10T11:11:56;3.20;;;3.00;;
16450;SDS011;12243;42.708;23.310;2023-06-10T11:14:28;2.63;;;2.53;;
16450;SDS011;12243;42.708;23.310;2023-06-10T11:16:57;3.17;;;2.92;;
16450;SDS011;12243;42.708;23.310;2023-06-10T11:19:34;3.47;;;3.17;;
16450;SDS011;12243;42.708;23.310;2023-06-10T11:22:03;3.22;;;3.03;;
16450;SDS011;12243;42.708;23.310;2023-06-10T11:24:34;3.35;;;3.08;;
16450;SDS011;12243;42.708;23.310;2023-06-10T11:27:17;3.00;;;2.90;;
16450;SDS011;12243;42.708;23.310;2023-06-10T11:29:57;3.50;;;3.30;;
16450;SDS011;12243;42.708;23.310;2023-06-10T11:32:30;3.42;;;3.22;;
16450;SDS011;12243;42.708;23.310;2023-06-10T11:34:57;3.53;;;3.22;;
16450;SDS011;12243;42.708;23.310;2023-06-10T11:37:25;3.53;;;3.30;;
16450;SDS011;12243;42.708;23.310;2023-06-10T11:39:55;3.63;;;3.33;;
16450;SDS011;12243;42.708;23.310;2023-06-10T11:42:23;3.33;;;3.13;;
16450;SDS011;12243;42.708;23.310;2023-06-10T11:44:50;3.13;;;3.03;;
16450;SDS011;12243;42.708;23.310;2023-06-10T11:47:18;3.60;;;3.25;;
16450;SDS011;12243;42.708;23.310;2023-06-10T11:49:46;3.15;;;3.00;;
16450;SDS011;12243;42.708;23.310;2023-06-10T11:52:25;3.10;;;2.90;;
16450;SDS011;12243;42.708;23.310;2023-06-10T11:54:53;3.08;;;2.85;;
16450;SDS011;12243;42.708;23.310;2023-06-10T11:57:22;3.40;;;3.10;;
16450;SDS011;12243;42.708;23.310;2023-06-10T11:59:49;3.30;;;3.10;;
16450;SDS011;12243;42.708;23.310;2023-06-10T12:02:17;3.17;;;3.08;;
16450;SDS011;12243;42.708;23.310;2023-06-10T12:04:45;3.10;;;2.90;;
16450;SDS011;12243;42.708;23.310;2023-06-10T12:07:16;3.10;;;2.90;;
16450;SDS011;12243;42.708;23.310;2023-06-10T12:09:44;3.20;;;3.00;;
16450;SDS011;12243;42.708;23.310;2023-06-10T12:12:13;2.90;;;2.80;;
16450;SDS011;12243;42.708;23.310;2023-06-10T12:14:53;2.80;;;2.70;;
16450;SDS011;12243;42.708;23.310;2023-06-10T12:17:22;3.30;;;3.10;;
16450;SDS011;12243;42.708;23.310;2023-06-10T12:19:49;3.35;;;3.15;;
16450;SDS011;12243;42.708;23.310;2023-06-10T12:22:18;2.83;;;2.72;;
16450;SDS011;12243;42.708;23.310;2023-06-10T12:24:45;3.17;;;2.90;;
16450;SDS011;12243;42.708;23.310;2023-06-10T12:27:26;3.08;;;2.88;;
16450;SDS011;12243;42.708;23.310;2023-06-10T12:29:55;2.67;;;2.58;;
16450;SDS011;12243;42.708;23.310;2023-06-10T12:32:34;3.15;;;3.05;;
16450;SDS011;12243;42.708;23.310;2023-06-10T12:35:02;2.78;;;2.67;;
16450;SDS011;12243;42.708;23.310;2023-06-10T12:37:30;3.67;;;3.47;;
16450;SDS011;12243;42.708;23.310;2023-06-10T12:39:59;3.00;;;2.90;;
16450;SDS011;12243;42.708;23.310;2023-06-10T12:42:29;3.22;;;3.03;;
16450;SDS011;12243;42.708;23.310;2023-06-10T12:44:56;3.63;;;3.03;;
16450;SDS011;12243;42.708;23.310;2023-06-10T12:47:29;3.17;;;2.90;;
16450;SDS011;12243;42.708;23.310;2023-06-10T12:49:58;3.42;;;3.22;;
16450;SDS011;12243;42.708;23.310;2023-06-10T12:52:25;2.85;;;2.75;;
16450;SDS011;12243;42.708;23.310;2023-06-10T12:54:52;2.70;;;2.60;;
16450;SDS011;12243;42.708;23.310;2023-06-10T12:57:20;3.15;;;2.97;;
16450;SDS011;12243;42.708;23.310;2023-06-10T12:59:48;3.00;;;2.80;;
16450;SDS011;12243;42.708;23.310;2023-06-10T13:02:18;2.65;;;2.53;;
16450;SDS011;12243;42.708;23.310;2023-06-10T13:04:46;2.80;;;2.70;;
16450;SDS011;12243;42.708;23.310;2023-06-10T13:07:13;3.00;;;2.80;;
16450;SDS011;12243;42.708;23.310;2023-06-10T13:09:41;2.80;;;2.65;;
16450;SDS011;12243;42.708;23.310;2023-06-10T13:12:08;2.83;;;2.72;;
16450;SDS011;12243;42.708;23.310;2023-06-10T13:14:37;3.30;;;3.10;;
16450;SDS011;12243;42.708;23.310;2023-06-10T13:17:05;3.65;;;3.40;;
16450;SDS011;12243;42.708;23.310;2023-06-10T13:19:32;3.55;;;3.30;;
16450;SDS011;12243;42.708;23.310;2023-06-10T13:21:59;4.38;;;3.72;;
16450;SDS011;12243;42.708;23.310;2023-06-10T13:24:26;3.97;;;3.60;;
16450;SDS011;12243;42.708;23.310;2023-06-10T13:26:53;3.72;;;3.53;;
16450;SDS011;12243;42.708;23.310;2023-06-10T13:29:21;4.32;;;3.97;;
16450;SDS011;12243;42.708;23.310;2023-06-10T13:31:48;3.72;;;3.42;;
16450;SDS011;12243;42.708;23.310;2023-06-10T13:34:16;5.38;;;3.22;;
16450;SDS011;12243;42.708;23.310;2023-06-10T13:36:44;3.80;;;3.60;;
16450;SDS011;12243;42.708;23.310;2023-06-10T13:39:11;4.07;;;3.80;;
16450;SDS011;12243;42.708;23.310;2023-06-10T13:41:39;4.80;;;4.32;;
16450;SDS011;12243;42.708;23.310;2023-06-10T13:44:06;4.40;;;3.65;;
16450;SDS011;12243;42.708;23.310;2023-06-10T13:46:33;3.78;;;3.47;;
16450;SDS011;12243;42.708;23.310;2023-06-10T13:49:00;3.70;;;3.42;;
16450;SDS011;12243;42.708;23.310;2023-06-10T13:51:28;4.40;;;4.10;;
16450;SDS011;12243;42.708;23.310;2023-06-10T13:53:56;6.28;;;3.92;;
16450;SDS011;12243;42.708;23.310;2023-06-10T13:56:23;4.30;;;3.58;;
16450;SDS011;12243;42.708;23.310;2023-06-10T13:58:50;4.10;;;3.80;;
16450;SDS011;12243;42.708;23.310;2023-06-10T14:01:17;4.80;;;4.38;;
16450;SDS011;12243;42.708;23.310;2023-06-10T14:03:44;4.35;;;3.95;;
16450;SDS011;12243;42.708;23.310;2023-06-10T14:06:13;4.25;;;3.95;;
16450;SDS011;12243;42.708;23.310;2023-06-10T14:08:44;4.13;;;3.92;;
16450;SDS011;12243;42.708;23.310;2023-06-10T14:11:11;3.80;;;3.60;;
16450;SDS011;12243;42.708;23.310;2023-06-10T14:13:38;3.95;;;3.75;;
16450;SDS011;12243;42.708;23.310;2023-06-10T14:16:05;7.45;;;3.92;;
16450;SDS011;12243;42.708;23.310;2023-06-10T14:18:32;4.15;;;3.85;;
16450;SDS011;12243;42.708;23.310;2023-06-10T14:20:59;3.88;;;3.67;;
16450;SDS011;12243;42.708;23.310;2023-06-10T14:23:26;3.90;;;3.63;;
16450;SDS011;12243;42.708;23.310;2023-06-10T14:25:54;3.40;;;3.20;;
16450;SDS011;12243;42.708;23.310;2023-06-10T14:28:21;4.53;;;3.90;;
16450;SDS011;12243;42.708;23.310;2023-06-10T14:30:49;4.60;;;4.30;;
16450;SDS011;12243;42.708;23.310;2023-06-10T14:33:16;4.45;;;4.15;;
16450;SDS011;12243;42.708;23.310;2023-06-10T14:35:43;4.97;;;4.55;;
16450;SDS011;12243;42.708;23.310;2023-06-10T14:38:10;4.47;;;4.18;;
16450;SDS011;12243;42.708;23.310;2023-06-10T14:40:37;4.30;;;3.90;;
16450;SDS011;12243;42.708;23.310;2023-06-10T14:43:05;4.65;;;3.50;;
16450;SDS011;12243;42.708;23.310;2023-06-10T14:45:35;4.28;;;3.65;;
16450;SDS011;12243;42.708;23.310;2023-06-10T14:48:02;4.20;;;3.90;;